sensor_id;sensor_type;location;lat;lon;timestamp;temperature;humidity
10344;DHT22;5217;43.960;10.954;2023-03-08T00:01:20;14.70;99.90
10344;DHT22;5217;43.960;10.954;2023-03-08T00:03:51;14.70;99.90
10344;DHT22;5217;43.960;10.954;2023-03-08T00:06:21;14.70;99.90
10344;DHT22;5217;43.960;10.954;2023-03-08T00:08:54;14.70;99.90
10344;DHT22;5217;43.960;10.954;2023-03-08T00:11:23;14.70;99.90
10344;DHT22;5217;43.960;10.954;2023-03-08T00:13:51;14.60;99.90
10344;DHT22;5217;43.960;10.954;2023-03-08T00:16:21;14.60;99.90
10344;DHT22;5217;43.960;10.954;2023-03-08T00:18:50;14.60;99.90
10344;DHT22;5217;43.960;10.954;2023-03-08T00:21:18;14.60;99.90
10344;DHT22;5217;43.960;10.954;2023-03-08T00:23:46;14.60;99.90
10344;DHT22;5217;43.960;10.954;2023-03-08T00:26:17;14.60;99.90
10344;DHT22;5217;43.960;10.954;2023-03-08T00:28:46;14.60;99.90
10344;DHT22;5217;43.960;10.954;2023-03-08T00:31:15;14.60;99.90
10344;DHT22;5217;43.960;10.954;2023-03-08T00:33:43;14.60;99.90
10344;DHT22;5217;43.960;10.954;2023-03-08T00:36:14;14.60;99.90
10344;DHT22;5217;43.960;10.954;2023-03-08T00:38:43;14.60;99.90
10344;DHT22;5217;43.960;10.954;2023-03-08T00:41:12;14.60;99.90
10344;DHT22;5217;43.960;10.954;2023-03-08T00:43:42;14.60;99.90
10344;DHT22;5217;43.960;10.954;2023-03-08T00:46:11;14.60;99.90
10344;DHT22;5217;43.960;10.954;2023-03-08T00:48:39;14.60;99.90
10344;DHT22;5217;43.960;10.954;2023-03-08T00:51:11;14.60;99.90
10344;DHT22;5217;43.960;10.954;2023-03-08T00:53:40;14.60;99.90
10344;DHT22;5217;43.960;10.954;2023-03-08T00:56:09;14.50;99.90
10344;DHT22;5217;43.960;10.954;2023-03-08T00:58:38;14.50;99.90
10344;DHT22;5217;43.960;10.954;2023-03-08T01:01:12;14.50;99.90
10344;DHT22;5217;43.960;10.954;2023-03-08T01:03:41;14.50;99.90
10344;DHT22;5217;43.960;10.954;2023-03-08T01:06:12;14.50;99.90
10344;DHT22;5217;43.960;10.954;2023-03-08T01:08:41;14.50;99.90
10344;DHT22;5217;43.960;10.954;2023-03-08T01:11:15;14.50;99.90
10344;DHT22;5217;43.960;10.954;2023-03-08T01:13:44;14.50;99.90
10344;DHT22;5217;43.960;10.954;2023-03-08T01:16:19;14.50;99.90
10344;DHT22;5217;43.960;10.954;2023-03-08T01:18:48;14.50;99.90
10344;DHT22;5217;43.960;10.954;2023-03-08T01:21:17;14.40;99.90
10344;DHT22;5217;43.960;10.954;2023-03-08T01:23:45;14.50;99.90
10344;DHT22;5217;43.960;10.954;2023-03-08T01:26:15;14.50;99.90
10344;DHT22;5217;43.960;10.954;2023-03-08T01:28:43;14.40;99.90
10344;DHT22;5217;43.960;10.954;2023-03-08T01:31:14;14.50;99.90
10344;DHT22;5217;43.960;10.954;2023-03-08T01:33:44;14.50;99.90
10344;DHT22;5217;43.960;10.954;2023-03-08T01:36:14;14.50;99.90
10344;DHT22;5217;43.960;10.954;2023-03-08T01:38:44;14.40;99.90
10344;DHT22;5217;43.960;10.954;2023-03-08T01:41:15;14.40;99.90
10344;DHT22;5217;43.960;10.954;2023-03-08T01:43:44;14.40;99.90
10344;DHT22;5217;43.960;10.954;2023-03-08T01:46:25;14.40;99.90
10344;DHT22;5217;43.960;10.954;2023-03-08T01:49:00;14.40;99.90
10344;DHT22;5217;43.960;10.954;2023-03-08T01:51:34;14.40;99.90
10344;DHT22;5217;43.960;10.954;2023-03-08T01:54:07;14.40;99.90
10344;DHT22;5217;43.960;10.954;2023-03-08T01:56:38;14.40;99.90
10344;DHT22;5217;43.960;10.954;2023-03-08T01:59:07;14.40;99.90
10344;DHT22;5217;43.960;10.954;2023-03-08T02:01:35;14.40;99.90
10344;DHT22;5217;43.960;10.954;2023-03-08T02:04:06;14.40;99.90
10344;DHT22;5217;43.960;10.954;2023-03-08T02:06:34;14.40;99.90
10344;DHT22;5217;43.960;10.954;2023-03-08T02:09:03;14.30;99.90
10344;DHT22;5217;43.960;10.954;2023-03-08T02:11:32;14.30;99.90
10344;DHT22;5217;43.960;10.954;2023-03-08T02:14:01;14.30;99.90
10344;DHT22;5217;43.960;10.954;2023-03-08T02:16:30;14.30;99.90
10344;DHT22;5217;43.960;10.954;2023-03-08T02:19:00;14.30;99.90
10344;DHT22;5217;43.960;10.954;2023-03-08T02:21:31;14.30;99.90
10344;DHT22;5217;43.960;10.954;2023-03-08T02:24:05;14.30;99.90
10344;DHT22;5217;43.960;10.954;2023-03-08T02:26:35;14.30;99.90
10344;DHT22;5217;43.960;10.954;2023-03-08T02:29:04;14.30;99.90
10344;DHT22;5217;43.960;10.954;2023-03-08T02:31:32;14.30;99.90
10344;DHT22;5217;43.960;10.954;2023-03-08T02:34:01;14.30;99.90
10344;DHT22;5217;43.960;10.954;2023-03-08T02:36:29;14.30;99.90
10344;DHT22;5217;43.960;10.954;2023-03-08T02:38:57;14.30;99.90
10344;DHT22;5217;43.960;10.954;2023-03-08T02:41:27;14.30;99.90
10344;DHT22;5217;43.960;10.954;2023-03-08T02:43:56;14.30;99.90
10344;DHT22;5217;43.960;10.954;2023-03-08T02:46:24;14.30;99.90
10344;DHT22;5217;43.960;10.954;2023-03-08T02:48:53;14.30;99.90
10344;DHT22;5217;43.960;10.954;2023-03-08T02:51:21;14.20;99.90
10344;DHT22;5217;43.960;10.954;2023-03-08T02:53:49;14.30;99.90
10344;DHT22;5217;43.960;10.954;2023-03-08T02:56:18;14.20;99.90
10344;DHT22;5217;43.960;10.954;2023-03-08T02:58:47;14.20;99.90
10344;DHT22;5217;43.960;10.954;2023-03-08T03:01:16;14.20;99.90
10344;DHT22;5217;43.960;10.954;2023-03-08T03:03:44;14.20;99.90
10344;DHT22;5217;43.960;10.954;2023-03-08T03:06:14;14.20;99.90
10344;DHT22;5217;43.960;10.954;2023-03-08T03:08:42;14.20;99.90
10344;DHT22;5217;43.960;10.954;2023-03-08T03:11:12;14.20;99.90
10344;DHT22;5217;43.960;10.954;2023-03-08T03:13:40;14.20;99.90
10344;DHT22;5217;43.960;10.954;2023-03-08T03:16:12;14.20;99.90
10344;DHT22;5217;43.960;10.954;2023-03-08T03:18:41;14.20;99.90
10344;DHT22;5217;43.960;10.954;2023-03-08T03:21:10;14.20;99.90
10344;DHT22;5217;43.960;10.954;2023-03-08T03:23:39;14.20;99.90
10344;DHT22;5217;43.960;10.954;2023-03-08T03:26:09;14.20;99.90
10344;DHT22;5217;43.960;10.954;2023-03-08T03:28:38;14.20;99.90
10344;DHT22;5217;43.960;10.954;2023-03-08T03:31:10;14.20;99.90
10344;DHT22;5217;43.960;10.954;2023-03-08T03:33:38;14.20;99.90
10344;DHT22;5217;43.960;10.954;2023-03-08T03:36:07;14.10;99.90
10344;DHT22;5217;43.960;10.954;2023-03-08T03:38:38;14.10;99.90
10344;DHT22;5217;43.960;10.954;2023-03-08T03:41:08;14.20;99.90
10344;DHT22;5217;43.960;10.954;2023-03-08T03:43:37;14.10;99.90
10344;DHT22;5217;43.960;10.954;2023-03-08T03:46:07;14.10;99.90
10344;DHT22;5217;43.960;10.954;2023-03-08T03:48:37;14.10;99.90
10344;DHT22;5217;43.960;10.954;2023-03-08T03:51:08;14.10;99.90
10344;DHT22;5217;43.960;10.954;2023-03-08T03:53:37;14.10;99.90
10344;DHT22;5217;43.960;10.954;2023-03-08T03:56:09;14.10;99.90
10344;DHT22;5217;43.960;10.954;2023-03-08T03:58:39;14.10;99.90
10344;DHT22;5217;43.960;10.954;2023-03-08T04:01:09;14.10;99.90
10344;DHT22;5217;43.960;10.954;2023-03-08T04:03:39;14.10;99.90
10344;DHT22;5217;43.960;10.954;2023-03-08T04:06:10;14.10;99.90
10344;DHT22;5217;43.960;10.954;2023-03-08T04:08:40;14.10;99.90
10344;DHT22;5217;43.960;10.954;2023-03-08T04:11:10;14.10;99.90
10344;DHT22;5217;43.960;10.954;2023-03-08T04:13:39;14.10;99.90
10344;DHT22;5217;43.960;10.954;2023-03-08T04:16:09;14.10;99.90
10344;DHT22;5217;43.960;10.954;2023-03-08T04:18:39;14.10;99.90
10344;DHT22;5217;43.960;10.954;2023-03-08T04:21:08;14.10;99.90
10344;DHT22;5217;43.960;10.954;2023-03-08T04:23:37;14.10;99.90
10344;DHT22;5217;43.960;10.954;2023-03-08T04:26:06;14.10;99.90
10344;DHT22;5217;43.960;10.954;2023-03-08T04:28:34;14.10;99.90
10344;DHT22;5217;43.960;10.954;2023-03-08T04:31:11;14.10;99.90
10344;DHT22;5217;43.960;10.954;2023-03-08T04:33:42;14.10;99.90
10344;DHT22;5217;43.960;10.954;2023-03-08T04:36:11;14.10;99.90
10344;DHT22;5217;43.960;10.954;2023-03-08T04:38:40;14.10;99.90
10344;DHT22;5217;43.960;10.954;2023-03-08T04:41:08;14.10;99.90
10344;DHT22;5217;43.960;10.954;2023-03-08T04:43:38;14.00;99.90
10344;DHT22;5217;43.960;10.954;2023-03-08T04:46:07;14.00;99.90
10344;DHT22;5217;43.960;10.954;2023-03-08T04:48:36;14.00;99.90
10344;DHT22;5217;43.960;10.954;2023-03-08T04:51:08;14.00;99.90
10344;DHT22;5217;43.960;10.954;2023-03-08T04:53:37;14.00;99.90
10344;DHT22;5217;43.960;10.954;2023-03-08T04:56:08;14.00;99.90
10344;DHT22;5217;43.960;10.954;2023-03-08T04:58:37;14.00;99.90
10344;DHT22;5217;43.960;10.954;2023-03-08T05:01:09;14.00;99.90
10344;DHT22;5217;43.960;10.954;2023-03-08T05:03:38;14.00;99.90
10344;DHT22;5217;43.960;10.954;2023-03-08T05:06:09;13.90;99.90
10344;DHT22;5217;43.960;10.954;2023-03-08T05:08:37;13.90;99.90
10344;DHT22;5217;43.960;10.954;2023-03-08T05:11:06;14.00;99.90
10344;DHT22;5217;43.960;10.954;2023-03-08T05:13:36;14.00;99.90
10344;DHT22;5217;43.960;10.954;2023-03-08T05:16:06;14.00;99.90
10344;DHT22;5217;43.960;10.954;2023-03-08T05:18:35;14.00;99.90
10344;DHT22;5217;43.960;10.954;2023-03-08T05:21:04;14.00;99.90
10344;DHT22;5217;43.960;10.954;2023-03-08T05:23:34;14.00;99.90
10344;DHT22;5217;43.960;10.954;2023-03-08T05:26:04;13.90;99.90
10344;DHT22;5217;43.960;10.954;2023-03-08T05:28:34;14.00;99.90
10344;DHT22;5217;43.960;10.954;2023-03-08T05:31:05;13.90;99.90
10344;DHT22;5217;43.960;10.954;2023-03-08T05:33:34;13.90;99.90
10344;DHT22;5217;43.960;10.954;2023-03-08T05:36:04;13.90;99.90
10344;DHT22;5217;43.960;10.954;2023-03-08T05:38:34;13.90;99.90
10344;DHT22;5217;43.960;10.954;2023-03-08T05:41:05;13.90;99.90
10344;DHT22;5217;43.960;10.954;2023-03-08T05:43:34;13.90;99.90
10344;DHT22;5217;43.960;10.954;2023-03-08T05:46:04;13.90;99.90
10344;DHT22;5217;43.960;10.954;2023-03-08T05:48:33;14.00;99.90
10344;DHT22;5217;43.960;10.954;2023-03-08T05:51:04;14.00;99.90
10344;DHT22;5217;43.960;10.954;2023-03-08T05:53:34;14.00;99.90
10344;DHT22;5217;43.960;10.954;2023-03-08T05:56:07;14.00;99.90
10344;DHT22;5217;43.960;10.954;2023-03-08T05:58:37;14.00;99.90
10344;DHT22;5217;43.960;10.954;2023-03-08T06:01:10;14.00;99.90
10344;DHT22;5217;43.960;10.954;2023-03-08T06:03:39;14.00;99.90
10344;DHT22;5217;43.960;10.954;2023-03-08T06:06:08;14.00;99.90
10344;DHT22;5217;43.960;10.954;2023-03-08T06:08:38;14.00;99.90
10344;DHT22;5217;43.960;10.954;2023-03-08T06:11:06;14.00;99.90
10344;DHT22;5217;43.960;10.954;2023-03-08T06:13:35;14.00;99.90
10344;DHT22;5217;43.960;10.954;2023-03-08T06:16:04;14.00;99.90
10344;DHT22;5217;43.960;10.954;2023-03-08T06:18:35;14.00;99.90
10344;DHT22;5217;43.960;10.954;2023-03-08T06:21:05;14.10;99.90
10344;DHT22;5217;43.960;10.954;2023-03-08T06:23:36;14.00;99.90
10344;DHT22;5217;43.960;10.954;2023-03-08T06:26:06;14.10;99.90
10344;DHT22;5217;43.960;10.954;2023-03-08T06:28:35;14.00;99.90
10344;DHT22;5217;43.960;10.954;2023-03-08T06:31:04;14.10;99.90
10344;DHT22;5217;43.960;10.954;2023-03-08T06:33:33;14.10;99.90
10344;DHT22;5217;43.960;10.954;2023-03-08T06:36:04;14.10;99.90
10344;DHT22;5217;43.960;10.954;2023-03-08T06:38:34;14.10;99.90
10344;DHT22;5217;43.960;10.954;2023-03-08T06:41:05;14.10;99.90
10344;DHT22;5217;43.960;10.954;2023-03-08T06:43:34;14.10;99.90
10344;DHT22;5217;43.960;10.954;2023-03-08T06:46:03;14.10;99.90
10344;DHT22;5217;43.960;10.954;2023-03-08T06:48:33;14.20;99.90
10344;DHT22;5217;43.960;10.954;2023-03-08T06:51:02;14.20;99.90
10344;DHT22;5217;43.960;10.954;2023-03-08T06:53:31;14.20;99.90
10344;DHT22;5217;43.960;10.954;2023-03-08T06:56:02;14.20;99.90
10344;DHT22;5217;43.960;10.954;2023-03-08T06:58:33;14.20;99.90
10344;DHT22;5217;43.960;10.954;2023-03-08T07:01:02;14.20;99.90
10344;DHT22;5217;43.960;10.954;2023-03-08T07:03:32;14.20;99.90
10344;DHT22;5217;43.960;10.954;2023-03-08T07:06:02;14.20;99.90
10344;DHT22;5217;43.960;10.954;2023-03-08T07:08:31;14.20;99.90
10344;DHT22;5217;43.960;10.954;2023-03-08T07:11:00;14.20;99.90
10344;DHT22;5217;43.960;10.954;2023-03-08T07:13:28;14.20;99.90
10344;DHT22;5217;43.960;10.954;2023-03-08T07:15:58;14.30;99.90
10344;DHT22;5217;43.960;10.954;2023-03-08T07:18:27;14.30;99.90
10344;DHT22;5217;43.960;10.954;2023-03-08T07:20:55;14.30;99.90
10344;DHT22;5217;43.960;10.954;2023-03-08T07:23:24;14.30;99.90
10344;DHT22;5217;43.960;10.954;2023-03-08T07:25:52;14.30;99.90
10344;DHT22;5217;43.960;10.954;2023-03-08T07:28:21;14.40;99.90
10344;DHT22;5217;43.960;10.954;2023-03-08T07:30:51;14.40;99.90
10344;DHT22;5217;43.960;10.954;2023-03-08T07:33:21;14.40;99.90
10344;DHT22;5217;43.960;10.954;2023-03-08T07:35:50;14.40;99.90
10344;DHT22;5217;43.960;10.954;2023-03-08T07:38:18;14.50;99.90
10344;DHT22;5217;43.960;10.954;2023-03-08T07:40:53;14.50;99.90
10344;DHT22;5217;43.960;10.954;2023-03-08T07:43:22;14.50;99.90
10344;DHT22;5217;43.960;10.954;2023-03-08T07:45:51;14.50;99.90
10344;DHT22;5217;43.960;10.954;2023-03-08T07:48:20;14.50;99.90
10344;DHT22;5217;43.960;10.954;2023-03-08T07:50:49;14.50;99.90
10344;DHT22;5217;43.960;10.954;2023-03-08T07:53:17;14.50;99.90
10344;DHT22;5217;43.960;10.954;2023-03-08T07:55:46;14.50;99.90
10344;DHT22;5217;43.960;10.954;2023-03-08T07:58:14;14.50;99.90
10344;DHT22;5217;43.960;10.954;2023-03-08T08:00:42;14.60;99.90
10344;DHT22;5217;43.960;10.954;2023-03-08T08:03:11;14.60;99.90
10344;DHT22;5217;43.960;10.954;2023-03-08T08:05:40;14.50;99.90
10344;DHT22;5217;43.960;10.954;2023-03-08T08:08:09;14.50;99.90
10344;DHT22;5217;43.960;10.954;2023-03-08T08:10:39;14.60;99.90
10344;DHT22;5217;43.960;10.954;2023-03-08T08:13:08;14.60;99.90
10344;DHT22;5217;43.960;10.954;2023-03-08T08:15:36;14.60;99.90
10344;DHT22;5217;43.960;10.954;2023-03-08T08:18:05;14.60;99.90
10344;DHT22;5217;43.960;10.954;2023-03-08T08:20:33;14.60;99.90
10344;DHT22;5217;43.960;10.954;2023-03-08T08:23:04;14.60;99.90
10344;DHT22;5217;43.960;10.954;2023-03-08T08:25:32;14.70;99.90
10344;DHT22;5217;43.960;10.954;2023-03-08T08:28:01;14.70;99.90
10344;DHT22;5217;43.960;10.954;2023-03-08T08:30:29;14.80;99.90
10344;DHT22;5217;43.960;10.954;2023-03-08T08:32:57;14.80;99.90
10344;DHT22;5217;43.960;10.954;2023-03-08T08:35:27;14.80;99.90
10344;DHT22;5217;43.960;10.954;2023-03-08T08:38:10;14.80;99.90
10344;DHT22;5217;43.960;10.954;2023-03-08T08:40:38;14.90;99.90
10344;DHT22;5217;43.960;10.954;2023-03-08T08:43:07;14.90;99.90
10344;DHT22;5217;43.960;10.954;2023-03-08T08:45:35;14.90;99.90
10344;DHT22;5217;43.960;10.954;2023-03-08T08:48:03;14.90;99.90
10344;DHT22;5217;43.960;10.954;2023-03-08T08:50:32;14.90;99.90
10344;DHT22;5217;43.960;10.954;2023-03-08T08:53:00;15.00;99.90
10344;DHT22;5217;43.960;10.954;2023-03-08T08:55:30;14.90;99.90
10344;DHT22;5217;43.960;10.954;2023-03-08T08:57:58;15.00;99.90
10344;DHT22;5217;43.960;10.954;2023-03-08T09:00:26;15.00;99.90
10344;DHT22;5217;43.960;10.954;2023-03-08T09:02:55;15.10;99.90
10344;DHT22;5217;43.960;10.954;2023-03-08T09:05:23;15.10;99.90
10344;DHT22;5217;43.960;10.954;2023-03-08T09:07:52;15.10;99.90
10344;DHT22;5217;43.960;10.954;2023-03-08T09:10:21;15.10;99.90
10344;DHT22;5217;43.960;10.954;2023-03-08T09:12:51;15.10;99.90
10344;DHT22;5217;43.960;10.954;2023-03-08T09:15:19;15.10;99.90
10344;DHT22;5217;43.960;10.954;2023-03-08T09:17:49;15.10;99.90
10344;DHT22;5217;43.960;10.954;2023-03-08T09:20:18;15.10;99.90
10344;DHT22;5217;43.960;10.954;2023-03-08T09:22:49;15.20;99.90
10344;DHT22;5217;43.960;10.954;2023-03-08T09:25:18;15.20;99.90
10344;DHT22;5217;43.960;10.954;2023-03-08T09:27:51;15.20;99.90
10344;DHT22;5217;43.960;10.954;2023-03-08T09:30:20;15.20;99.90
10344;DHT22;5217;43.960;10.954;2023-03-08T09:32:48;15.30;99.90
10344;DHT22;5217;43.960;10.954;2023-03-08T09:35:17;15.30;99.90
10344;DHT22;5217;43.960;10.954;2023-03-08T09:37:46;15.20;99.90
10344;DHT22;5217;43.960;10.954;2023-03-08T09:40:18;15.20;99.90
10344;DHT22;5217;43.960;10.954;2023-03-08T09:42:47;15.20;99.90
10344;DHT22;5217;43.960;10.954;2023-03-08T09:45:23;15.20;99.90
10344;DHT22;5217;43.960;10.954;2023-03-08T09:47:57;15.30;99.90
10344;DHT22;5217;43.960;10.954;2023-03-08T09:50:34;15.30;99.90
10344;DHT22;5217;43.960;10.954;2023-03-08T09:53:13;15.20;99.90
10344;DHT22;5217;43.960;10.954;2023-03-08T09:55:47;15.20;99.90
10344;DHT22;5217;43.960;10.954;2023-03-08T09:58:29;15.20;99.90
10344;DHT22;5217;43.960;10.954;2023-03-08T10:01:08;15.30;99.90
10344;DHT22;5217;43.960;10.954;2023-03-08T10:04:08;15.30;99.90
10344;DHT22;5217;43.960;10.954;2023-03-08T10:06:44;15.30;99.90
10344;DHT22;5217;43.960;10.954;2023-03-08T10:09:23;15.40;99.90
10344;DHT22;5217;43.960;10.954;2023-03-08T10:12:00;15.50;99.90
10344;DHT22;5217;43.960;10.954;2023-03-08T10:14:35;15.50;99.90
10344;DHT22;5217;43.960;10.954;2023-03-08T10:17:11;15.60;99.90
10344;DHT22;5217;43.960;10.954;2023-03-08T10:19:44;15.70;99.90
10344;DHT22;5217;43.960;10.954;2023-03-08T10:22:18;15.80;99.90
10344;DHT22;5217;43.960;10.954;2023-03-08T10:24:52;15.90;99.90
10344;DHT22;5217;43.960;10.954;2023-03-08T10:27:24;16.00;99.90
10344;DHT22;5217;43.960;10.954;2023-03-08T10:29:54;16.00;99.90
10344;DHT22;5217;43.960;10.954;2023-03-08T10:32:26;16.00;99.90
10344;DHT22;5217;43.960;10.954;2023-03-08T10:35:00;16.10;99.90
10344;DHT22;5217;43.960;10.954;2023-03-08T10:37:30;16.00;99.90
10344;DHT22;5217;43.960;10.954;2023-03-08T10:40:00;16.00;99.90
10344;DHT22;5217;43.960;10.954;2023-03-08T10:42:32;15.90;99.90
10344;DHT22;5217;43.960;10.954;2023-03-08T10:45:09;15.90;99.90
10344;DHT22;5217;43.960;10.954;2023-03-08T10:47:53;15.90;99.90
10344;DHT22;5217;43.960;10.954;2023-03-08T10:50:23;16.00;99.90
10344;DHT22;5217;43.960;10.954;2023-03-08T10:52:52;16.10;99.90
10344;DHT22;5217;43.960;10.954;2023-03-08T10:55:22;16.20;99.90
10344;DHT22;5217;43.960;10.954;2023-03-08T10:57:52;16.20;99.90
10344;DHT22;5217;43.960;10.954;2023-03-08T11:00:29;16.10;99.90
10344;DHT22;5217;43.960;10.954;2023-03-08T11:03:12;16.10;99.90
10344;DHT22;5217;43.960;10.954;2023-03-08T11:05:51;16.10;99.90
10344;DHT22;5217;43.960;10.954;2023-03-08T11:08:22;16.10;99.90
10344;DHT22;5217;43.960;10.954;2023-03-08T11:11:00;16.00;99.90
10344;DHT22;5217;43.960;10.954;2023-03-08T11:13:30;16.00;99.90
10344;DHT22;5217;43.960;10.954;2023-03-08T11:16:07;16.00;99.90
10344;DHT22;5217;43.960;10.954;2023-03-08T11:18:53;15.90;99.90
10344;DHT22;5217;43.960;10.954;2023-03-08T11:21:28;15.90;99.90
10344;DHT22;5217;43.960;10.954;2023-03-08T11:24:09;15.90;99.90
10344;DHT22;5217;43.960;10.954;2023-03-08T11:26:54;15.90;99.90
10344;DHT22;5217;43.960;10.954;2023-03-08T11:29:34;15.90;99.90
10344;DHT22;5217;43.960;10.954;2023-03-08T11:32:15;15.90;99.90
10344;DHT22;5217;43.960;10.954;2023-03-08T11:35:11;16.10;99.90
10344;DHT22;5217;43.960;10.954;2023-03-08T11:37:44;16.20;99.90
10344;DHT22;5217;43.960;10.954;2023-03-08T11:40:20;16.30;99.90
10344;DHT22;5217;43.960;10.954;2023-03-08T11:45:46;16.30;99.90
10344;DHT22;5217;43.960;10.954;2023-03-08T11:48:43;16.40;99.90
10344;DHT22;5217;43.960;10.954;2023-03-08T11:51:23;16.40;99.90
10344;DHT22;5217;43.960;10.954;2023-03-08T11:54:04;16.30;99.90
10344;DHT22;5217;43.960;10.954;2023-03-08T11:56:40;16.20;99.90
10344;DHT22;5217;43.960;10.954;2023-03-08T11:59:23;16.20;99.90
10344;DHT22;5217;43.960;10.954;2023-03-08T12:01:59;16.20;99.90
10344;DHT22;5217;43.960;10.954;2023-03-08T12:04:34;16.20;99.90
10344;DHT22;5217;43.960;10.954;2023-03-08T12:07:14;16.10;99.90
10344;DHT22;5217;43.960;10.954;2023-03-08T12:09:51;16.10;99.90
10344;DHT22;5217;43.960;10.954;2023-03-08T12:12:25;16.20;99.90
10344;DHT22;5217;43.960;10.954;2023-03-08T12:14:58;16.20;99.90
10344;DHT22;5217;43.960;10.954;2023-03-08T12:17:31;16.20;99.90
10344;DHT22;5217;43.960;10.954;2023-03-08T12:20:04;16.20;99.90
10344;DHT22;5217;43.960;10.954;2023-03-08T12:22:44;16.20;99.90
10344;DHT22;5217;43.960;10.954;2023-03-08T12:25:21;16.20;99.90
10344;DHT22;5217;43.960;10.954;2023-03-08T12:27:54;16.20;99.90
10344;DHT22;5217;43.960;10.954;2023-03-08T12:30:36;16.20;99.90
10344;DHT22;5217;43.960;10.954;2023-03-08T12:33:10;16.20;99.90
10344;DHT22;5217;43.960;10.954;2023-03-08T12:35:50;16.20;99.90
10344;DHT22;5217;43.960;10.954;2023-03-08T12:38:32;16.20;99.90
10344;DHT22;5217;43.960;10.954;2023-03-08T12:41:01;16.10;99.90
10344;DHT22;5217;43.960;10.954;2023-03-08T12:43:32;16.10;99.90
10344;DHT22;5217;43.960;10.954;2023-03-08T12:46:04;16.20;99.90
10344;DHT22;5217;43.960;10.954;2023-03-08T12:48:34;16.20;99.90
10344;DHT22;5217;43.960;10.954;2023-03-08T12:51:15;16.20;99.90
10344;DHT22;5217;43.960;10.954;2023-03-08T12:53:57;16.20;99.90
10344;DHT22;5217;43.960;10.954;2023-03-08T12:56:30;16.20;99.90
10344;DHT22;5217;43.960;10.954;2023-03-08T12:59:00;16.10;99.90
10344;DHT22;5217;43.960;10.954;2023-03-08T13:01:34;16.10;99.90
10344;DHT22;5217;43.960;10.954;2023-03-08T13:04:05;16.10;99.90
10344;DHT22;5217;43.960;10.954;2023-03-08T13:07:18;16.10;99.90
10344;DHT22;5217;43.960;10.954;2023-03-08T13:09:57;16.10;99.90
10344;DHT22;5217;43.960;10.954;2023-03-08T13:12:40;16.10;99.90
10344;DHT22;5217;43.960;10.954;2023-03-08T13:15:24;16.10;99.90
10344;DHT22;5217;43.960;10.954;2023-03-08T13:17:58;16.10;99.90
10344;DHT22;5217;43.960;10.954;2023-03-08T13:20:51;16.10;99.90
10344;DHT22;5217;43.960;10.954;2023-03-08T13:23:27;16.10;99.90
10344;DHT22;5217;43.960;10.954;2023-03-08T13:29:15;16.10;99.90
10344;DHT22;5217;43.960;10.954;2023-03-08T13:31:44;16.10;99.90
10344;DHT22;5217;43.960;10.954;2023-03-08T13:34:27;16.10;99.90
10344;DHT22;5217;43.960;10.954;2023-03-08T13:36:56;16.10;99.90
10344;DHT22;5217;43.960;10.954;2023-03-08T13:39:26;16.00;99.90
10344;DHT22;5217;43.960;10.954;2023-03-08T13:42:06;16.00;99.90
10344;DHT22;5217;43.960;10.954;2023-03-08T13:44:35;16.00;99.90
10344;DHT22;5217;43.960;10.954;2023-03-08T13:47:14;15.90;99.90
10344;DHT22;5217;43.960;10.954;2023-03-08T13:49:44;16.00;99.90
10344;DHT22;5217;43.960;10.954;2023-03-08T13:52:16;16.00;99.90
10344;DHT22;5217;43.960;10.954;2023-03-08T13:54:48;15.90;99.90
10344;DHT22;5217;43.960;10.954;2023-03-08T13:57:21;15.90;99.90
10344;DHT22;5217;43.960;10.954;2023-03-08T13:59:51;15.90;99.90
10344;DHT22;5217;43.960;10.954;2023-03-08T14:02:22;15.90;99.90
10344;DHT22;5217;43.960;10.954;2023-03-08T14:04:51;15.90;99.90
10344;DHT22;5217;43.960;10.954;2023-03-08T14:07:22;15.90;99.90
10344;DHT22;5217;43.960;10.954;2023-03-08T14:09:51;15.90;99.90
10344;DHT22;5217;43.960;10.954;2023-03-08T14:12:22;15.90;99.90
10344;DHT22;5217;43.960;10.954;2023-03-08T14:14:54;15.80;99.90
10344;DHT22;5217;43.960;10.954;2023-03-08T14:17:25;15.90;99.90
10344;DHT22;5217;43.960;10.954;2023-03-08T14:19:55;15.80;99.90
10344;DHT22;5217;43.960;10.954;2023-03-08T14:22:26;15.80;99.90
10344;DHT22;5217;43.960;10.954;2023-03-08T14:25:19;15.80;99.90
10344;DHT22;5217;43.960;10.954;2023-03-08T14:27:49;15.80;99.90
10344;DHT22;5217;43.960;10.954;2023-03-08T14:30:19;15.80;99.90
10344;DHT22;5217;43.960;10.954;2023-03-08T14:33:00;15.90;99.90
10344;DHT22;5217;43.960;10.954;2023-03-08T14:35:31;15.90;99.90
10344;DHT22;5217;43.960;10.954;2023-03-08T14:38:01;15.90;99.90
10344;DHT22;5217;43.960;10.954;2023-03-08T14:40:31;15.90;99.90
10344;DHT22;5217;43.960;10.954;2023-03-08T14:43:04;15.90;99.90
10344;DHT22;5217;43.960;10.954;2023-03-08T14:45:35;15.90;99.90
10344;DHT22;5217;43.960;10.954;2023-03-08T14:48:23;15.80;99.90
10344;DHT22;5217;43.960;10.954;2023-03-08T14:50:54;15.90;99.90
10344;DHT22;5217;43.960;10.954;2023-03-08T14:53:30;15.80;99.90
10344;DHT22;5217;43.960;10.954;2023-03-08T14:56:01;15.90;99.90
10344;DHT22;5217;43.960;10.954;2023-03-08T14:58:36;15.90;99.90
10344;DHT22;5217;43.960;10.954;2023-03-08T15:01:05;15.90;99.90
10344;DHT22;5217;43.960;10.954;2023-03-08T15:03:34;15.80;99.90
10344;DHT22;5217;43.960;10.954;2023-03-08T15:06:07;15.90;99.90
10344;DHT22;5217;43.960;10.954;2023-03-08T15:08:38;15.80;99.90
10344;DHT22;5217;43.960;10.954;2023-03-08T15:11:06;15.80;99.90
10344;DHT22;5217;43.960;10.954;2023-03-08T15:13:36;15.80;99.90
10344;DHT22;5217;43.960;10.954;2023-03-08T15:16:05;15.80;99.90
10344;DHT22;5217;43.960;10.954;2023-03-08T15:18:34;15.80;99.90
10344;DHT22;5217;43.960;10.954;2023-03-08T15:21:03;15.80;99.90
10344;DHT22;5217;43.960;10.954;2023-03-08T15:23:34;15.80;99.90
10344;DHT22;5217;43.960;10.954;2023-03-08T15:26:04;15.70;99.90
10344;DHT22;5217;43.960;10.954;2023-03-08T15:28:33;15.80;99.90
10344;DHT22;5217;43.960;10.954;2023-03-08T15:31:02;15.80;99.90
10344;DHT22;5217;43.960;10.954;2023-03-08T15:33:31;15.80;99.90
10344;DHT22;5217;43.960;10.954;2023-03-08T15:35:59;15.80;99.90
10344;DHT22;5217;43.960;10.954;2023-03-08T15:38:28;15.80;99.90
10344;DHT22;5217;43.960;10.954;2023-03-08T15:40:56;15.80;99.90
10344;DHT22;5217;43.960;10.954;2023-03-08T15:43:24;15.80;99.90
10344;DHT22;5217;43.960;10.954;2023-03-08T15:45:53;15.80;99.90
10344;DHT22;5217;43.960;10.954;2023-03-08T15:48:22;15.80;99.90
10344;DHT22;5217;43.960;10.954;2023-03-08T15:50:51;15.80;99.90
10344;DHT22;5217;43.960;10.954;2023-03-08T15:53:19;15.80;99.90
10344;DHT22;5217;43.960;10.954;2023-03-08T15:56:00;15.70;99.90
10344;DHT22;5217;43.960;10.954;2023-03-08T15:58:29;15.70;99.90
10344;DHT22;5217;43.960;10.954;2023-03-08T16:00:57;15.80;99.90
10344;DHT22;5217;43.960;10.954;2023-03-08T16:03:27;15.70;99.90